PWSweather.com
Personal Weather Stations
Station Observations
WAREHAM1
West Wareham, MA 02576

West Wareham, MA 02576

Lat: 41.7961059, Lon: -70.775612

Elevation: 88

Station Type: Davis Vantage Vue

http://www.gateway2capecod.com

Latest ConditionsUpdated 12:24:28 PM EDT Thursday, Oct 2, 2014
Currently Today's Max Today's Min Today's Average
Temperature 56.1°F13.4°C 59.5°F15.3°C 56.1°F13.4°C 58.5°F14.7°C
Dew Point 54.7°F12.6°C 58.6°F14.8°C 54.7°F12.6°C 57.5°F14.2°C
Winds 2.9 mph E4.7 kmh E 4.0 mph ENE6.4 kmh ENE - 2.7 mph 4.3 kmh
Wind Gusts 10.1 mph16.3 kmh 14.1 mph22.7 kmh - -
Humidity 95% 97% 95% 97%
Pressure 30.14 in1020.7 mb 30.14 in1020.7 mb 30.05 in1017.6 mb -
Precipitation - 0.41 in10.4 mm - -
Hour Temp Dew Point Humidity Winds Wind Gusts Pressure Precip Precip Rate Daily Precip Total
12:24 PM 56.1°F13.4°C 54.7°F12.6°C 95% 2.9 mph E4.7 kmh E 10.1 mph16.3 kmh 30.14 in1020.7 mb 0.01 in0.3 mm 0.00 in/hr0.0 mm/hr 0.41 in10.4 mm
12:14 PM 56.5°F13.6°C 55.0°F12.8°C 95% 2.9 mph N4.7 kmh N 8.1 mph13.0 kmh 30.13 in1020.3 mb 0.01 in0.3 mm 0.06 in/hr1.5 mm/hr 0.41 in10.4 mm
12:04 PM 56.7°F13.7°C 55.2°F12.9°C 95% 4.0 mph E6.4 kmh E 10.1 mph16.3 kmh 30.13 in1020.3 mb 0.00 in0.0 mm 0.00 in/hr0.0 mm/hr 0.40 in10.2 mm
11:54 AM 57.0°F13.9°C 55.6°F13.1°C 95% 4.0 mph NE6.4 kmh NE 14.1 mph22.7 kmh 30.13 in1020.3 mb 0.00 in0.0 mm 0.00 in/hr0.0 mm/hr 0.40 in10.2 mm
11:44 AM 57.6°F14.2°C 56.1°F13.4°C 95% 2.9 mph NW4.7 kmh NW 6.9 mph11.1 kmh 30.13 in1020.3 mb 0.00 in0.0 mm 0.00 in/hr0.0 mm/hr 0.40 in10.2 mm
11:34 AM 57.6°F14.2°C 56.1°F13.4°C 95% 2.9 mph WNW4.7 kmh WNW 9.0 mph14.5 kmh 30.13 in1020.3 mb 0.00 in0.0 mm 0.00 in/hr0.0 mm/hr 0.40 in10.2 mm
11:24 AM 58.1°F14.5°C 56.7°F13.7°C 95% 2.0 mph E3.2 kmh E 8.1 mph13.0 kmh 30.13 in1020.3 mb 0.00 in0.0 mm 0.00 in/hr0.0 mm/hr 0.40 in10.2 mm
11:14 AM 58.1°F14.5°C 56.7°F13.7°C 95% 2.9 mph E4.7 kmh E 13.0 mph20.9 kmh 30.13 in1020.3 mb 0.00 in0.0 mm 0.00 in/hr0.0 mm/hr 0.40 in10.2 mm
11:04 AM 58.1°F14.5°C 57.0°F13.9°C 96% 2.9 mph E4.7 kmh E 8.9 mph14.3 kmh 30.13 in1020.3 mb 0.00 in0.0 mm 0.00 in/hr0.0 mm/hr 0.40 in10.2 mm
10:54 AM 57.9°F14.4°C 56.8°F13.8°C 96% 2.9 mph ENE4.7 kmh ENE 10.1 mph16.3 kmh 30.13 in1020.3 mb 0.00 in0.0 mm 0.00 in/hr0.0 mm/hr 0.40 in10.2 mm
10:44 AM 57.9°F14.4°C 56.8°F13.8°C 96% 2.0 mph WNW3.2 kmh WNW 8.9 mph14.3 kmh 30.13 in1020.3 mb 0.00 in0.0 mm 0.00 in/hr0.0 mm/hr 0.40 in10.2 mm
10:34 AM 57.9°F14.4°C 56.8°F13.8°C 96% 2.9 mph NE4.7 kmh NE 10.1 mph16.3 kmh 30.12 in1020.0 mb 0.00 in0.0 mm 0.00 in/hr0.0 mm/hr 0.40 in10.2 mm
10:24 AM 57.9°F14.4°C 57.0°F13.9°C 97% 2.9 mph WNW4.7 kmh WNW 8.9 mph14.3 kmh 30.12 in1020.0 mb 0.00 in0.0 mm 0.00 in/hr0.0 mm/hr 0.40 in10.2 mm
10:14 AM 57.9°F14.4°C 57.0°F13.9°C 97% 2.9 mph E4.7 kmh E 9.0 mph14.5 kmh 30.12 in1020.0 mb 0.00 in0.0 mm 0.00 in/hr0.0 mm/hr 0.40 in10.2 mm
10:04 AM 57.9°F14.4°C 57.0°F13.9°C 97% 2.0 mph ESE3.2 kmh ESE 6.9 mph11.1 kmh 30.12 in1020.0 mb 0.01 in0.3 mm 0.00 in/hr0.0 mm/hr 0.40 in10.2 mm
09:54 AM 57.7°F14.3°C 56.8°F13.8°C 97% 2.9 mph N4.7 kmh N 8.9 mph14.3 kmh 30.12 in1020.0 mb 0.01 in0.3 mm 0.00 in/hr0.0 mm/hr 0.40 in10.2 mm
09:44 AM 57.7°F14.3°C 56.8°F13.8°C 97% 2.9 mph NE4.7 kmh NE 11.0 mph17.7 kmh 30.13 in1020.3 mb 0.01 in0.3 mm 0.00 in/hr0.0 mm/hr 0.40 in10.2 mm
09:34 AM 57.9°F14.4°C 57.0°F13.9°C 97% 2.0 mph ENE3.2 kmh ENE 8.1 mph13.0 kmh 30.12 in1020.0 mb 0.01 in0.3 mm 0.00 in/hr0.0 mm/hr 0.40 in10.2 mm
09:24 AM 57.9°F14.4°C 57.0°F13.9°C 97% 2.0 mph NW3.2 kmh NW 6.0 mph9.7 kmh 30.13 in1020.3 mb 0.01 in0.3 mm 0.00 in/hr0.0 mm/hr 0.40 in10.2 mm
09:14 AM 57.9°F14.4°C 57.0°F13.9°C 97% 2.0 mph NNE3.2 kmh NNE 6.0 mph9.7 kmh 30.13 in1020.3 mb 0.01 in0.3 mm 0.06 in/hr1.5 mm/hr 0.40 in10.2 mm
09:04 AM 57.9°F14.4°C 57.0°F13.9°C 97% 2.9 mph ENE4.7 kmh ENE 10.1 mph16.3 kmh 30.13 in1020.3 mb 0.00 in0.0 mm 0.00 in/hr0.0 mm/hr 0.39 in9.9 mm
08:54 AM 57.9°F14.4°C 57.0°F13.9°C 97% 2.9 mph SW4.7 kmh SW 8.9 mph14.3 kmh 30.13 in1020.3 mb 0.00 in0.0 mm 0.00 in/hr0.0 mm/hr 0.39 in9.9 mm
08:44 AM 57.9°F14.4°C 57.0°F13.9°C 97% 2.9 mph E4.7 kmh E 6.9 mph11.1 kmh 30.12 in1020.0 mb 0.00 in0.0 mm 0.00 in/hr0.0 mm/hr 0.39 in9.9 mm
08:34 AM 58.1°F14.5°C 57.2°F14.0°C 97% 2.9 mph SE4.7 kmh SE 11.0 mph17.7 kmh 30.11 in1019.6 mb 0.00 in0.0 mm 0.00 in/hr0.0 mm/hr 0.39 in9.9 mm
08:24 AM 58.1°F14.5°C 57.2°F14.0°C 97% 2.9 mph N4.7 kmh N 8.9 mph14.3 kmh 30.11 in1019.6 mb 0.01 in0.3 mm 0.00 in/hr0.0 mm/hr 0.39 in9.9 mm
08:14 AM 58.1°F14.5°C 57.2°F14.0°C 97% 2.9 mph NE4.7 kmh NE 10.1 mph16.3 kmh 30.11 in1019.6 mb 0.01 in0.3 mm 0.00 in/hr0.0 mm/hr 0.39 in9.9 mm
08:04 AM 58.1°F14.5°C 57.2°F14.0°C 97% 2.9 mph E4.7 kmh E 11.0 mph17.7 kmh 30.11 in1019.6 mb 0.02 in0.5 mm 0.00 in/hr0.0 mm/hr 0.39 in9.9 mm
07:54 AM 58.3°F14.6°C 57.4°F14.1°C 97% 2.9 mph WNW4.7 kmh WNW 11.0 mph17.7 kmh 30.11 in1019.6 mb 0.02 in0.5 mm 0.00 in/hr0.0 mm/hr 0.39 in9.9 mm
07:44 AM 58.3°F14.6°C 57.4°F14.1°C 97% 2.9 mph NE4.7 kmh NE 8.1 mph13.0 kmh 30.10 in1019.3 mb 0.05 in1.3 mm 0.00 in/hr0.0 mm/hr 0.39 in9.9 mm
07:34 AM 58.3°F14.6°C 57.4°F14.1°C 97% 2.9 mph NE4.7 kmh NE 11.0 mph17.7 kmh 30.10 in1019.3 mb 0.07 in1.8 mm 0.06 in/hr1.5 mm/hr 0.39 in9.9 mm
07:24 AM 58.5°F14.7°C 57.6°F14.2°C 97% 2.9 mph NE4.7 kmh NE 6.9 mph11.1 kmh 30.10 in1019.3 mb 0.06 in1.5 mm 0.00 in/hr0.0 mm/hr 0.38 in9.7 mm
07:14 AM 58.5°F14.7°C 57.6°F14.2°C 97% 2.9 mph N4.7 kmh N 8.9 mph14.3 kmh 30.10 in1019.3 mb 0.08 in2.0 mm 0.00 in/hr0.0 mm/hr 0.38 in9.7 mm
07:04 AM 58.5°F14.7°C 57.6°F14.2°C 97% 2.0 mph ENE3.2 kmh ENE 8.1 mph13.0 kmh 30.10 in1019.3 mb 0.08 in2.0 mm 0.00 in/hr0.0 mm/hr 0.37 in9.4 mm
06:54 AM 58.5°F14.7°C 57.6°F14.2°C 97% 2.0 mph ENE3.2 kmh ENE 9.0 mph14.5 kmh 30.10 in1019.3 mb 0.09 in2.3 mm 0.00 in/hr0.0 mm/hr 0.36 in9.1 mm
06:44 AM 58.5°F14.7°C 57.6°F14.2°C 97% 2.9 mph ENE4.7 kmh ENE 8.9 mph14.3 kmh 30.10 in1019.3 mb 0.09 in2.3 mm 0.00 in/hr0.0 mm/hr 0.34 in8.6 mm
06:34 AM 58.5°F14.7°C 57.6°F14.2°C 97% 2.9 mph ENE4.7 kmh ENE 11.0 mph17.7 kmh 30.10 in1019.3 mb 0.09 in2.3 mm 0.00 in/hr0.0 mm/hr 0.32 in8.1 mm
06:24 AM 58.5°F14.7°C 57.6°F14.2°C 97% 2.9 mph ENE4.7 kmh ENE 13.0 mph20.9 kmh 30.09 in1019.0 mb 0.09 in2.3 mm 0.12 in/hr3.0 mm/hr 0.31 in7.9 mm
06:14 AM 58.5°F14.7°C 57.6°F14.2°C 97% 2.9 mph E4.7 kmh E 13.0 mph20.9 kmh 30.09 in1019.0 mb 0.07 in1.8 mm 0.00 in/hr0.0 mm/hr 0.29 in7.4 mm
06:04 AM 58.5°F14.7°C 57.6°F14.2°C 97% 2.9 mph ENE4.7 kmh ENE 8.9 mph14.3 kmh 30.09 in1019.0 mb 0.07 in1.8 mm 0.02 in/hr0.5 mm/hr 0.29 in7.4 mm
05:54 AM 58.6°F14.8°C 57.7°F14.3°C 97% 2.9 mph NE4.7 kmh NE 11.0 mph17.7 kmh 30.09 in1019.0 mb 0.05 in1.3 mm 0.06 in/hr1.5 mm/hr 0.27 in6.9 mm
05:44 AM 58.6°F14.8°C 57.7°F14.3°C 97% 2.0 mph NE3.2 kmh NE 6.9 mph11.1 kmh 30.09 in1019.0 mb 0.04 in1.0 mm 0.18 in/hr4.6 mm/hr 0.25 in6.4 mm
05:34 AM 58.6°F14.8°C 57.7°F14.3°C 97% 4.0 mph ENE6.4 kmh ENE 10.1 mph16.3 kmh 30.09 in1019.0 mb 0.01 in0.3 mm 0.00 in/hr0.0 mm/hr 0.22 in5.6 mm
05:24 AM 58.6°F14.8°C 57.7°F14.3°C 97% 2.9 mph NE4.7 kmh NE 9.0 mph14.5 kmh 30.08 in1018.6 mb 0.01 in0.3 mm 0.00 in/hr0.0 mm/hr 0.22 in5.6 mm
05:14 AM 58.6°F14.8°C 57.7°F14.3°C 97% 2.9 mph NE4.7 kmh NE 8.1 mph13.0 kmh 30.08 in1018.6 mb 0.02 in0.5 mm 0.00 in/hr0.0 mm/hr 0.22 in5.6 mm
05:04 AM 58.6°F14.8°C 57.7°F14.3°C 97% 2.9 mph NW4.7 kmh NW 8.1 mph13.0 kmh 30.08 in1018.6 mb 0.03 in0.8 mm 0.00 in/hr0.0 mm/hr 0.22 in5.6 mm
04:54 AM 58.6°F14.8°C 57.7°F14.3°C 97% 2.0 mph ENE3.2 kmh ENE 6.9 mph11.1 kmh 30.08 in1018.6 mb 0.04 in1.0 mm 0.00 in/hr0.0 mm/hr 0.22 in5.6 mm
04:44 AM 58.6°F14.8°C 57.7°F14.3°C 97% 2.0 mph NNE3.2 kmh NNE 6.9 mph11.1 kmh 30.07 in1018.3 mb 0.05 in1.3 mm 0.00 in/hr0.0 mm/hr 0.21 in5.3 mm
04:34 AM 58.8°F14.9°C 57.9°F14.4°C 97% 2.0 mph NE3.2 kmh NE 10.1 mph16.3 kmh 30.07 in1018.3 mb 0.07 in1.8 mm 0.00 in/hr0.0 mm/hr 0.21 in5.3 mm
04:24 AM 58.8°F14.9°C 57.9°F14.4°C 97% 2.9 mph E4.7 kmh E 9.0 mph14.5 kmh 30.07 in1018.3 mb 0.08 in2.0 mm 0.06 in/hr1.5 mm/hr 0.21 in5.3 mm
04:14 AM 58.8°F14.9°C 57.9°F14.4°C 97% 2.0 mph NW3.2 kmh NW 8.1 mph13.0 kmh 30.07 in1018.3 mb 0.07 in1.8 mm 0.06 in/hr1.5 mm/hr 0.20 in5.1 mm
04:04 AM 58.8°F14.9°C 57.9°F14.4°C 97% 2.9 mph WSW4.7 kmh WSW 10.1 mph16.3 kmh 30.06 in1017.9 mb 0.06 in1.5 mm 0.00 in/hr0.0 mm/hr 0.19 in4.8 mm
03:54 AM 58.8°F14.9°C 57.9°F14.4°C 97% 2.0 mph NNE3.2 kmh NNE 8.1 mph13.0 kmh 30.06 in1017.9 mb 0.07 in1.8 mm 0.12 in/hr3.0 mm/hr 0.18 in4.6 mm
03:44 AM 59.0°F15.0°C 58.1°F14.5°C 97% 2.9 mph NNW4.7 kmh NNW 6.9 mph11.1 kmh 30.06 in1017.9 mb 0.05 in1.3 mm 0.06 in/hr1.5 mm/hr 0.16 in4.1 mm
03:34 AM 59.0°F15.0°C 58.1°F14.5°C 97% 2.9 mph NE4.7 kmh NE 10.1 mph16.3 kmh 30.06 in1017.9 mb 0.04 in1.0 mm 0.00 in/hr0.0 mm/hr 0.14 in3.6 mm
03:24 AM 59.0°F15.0°C 58.1°F14.5°C 97% 2.0 mph N3.2 kmh N 8.1 mph13.0 kmh 30.06 in1017.9 mb 0.04 in1.0 mm 0.00 in/hr0.0 mm/hr 0.13 in3.3 mm
03:14 AM 59.2°F15.1°C 58.3°F14.6°C 97% 2.0 mph NE3.2 kmh NE 11.0 mph17.7 kmh 30.06 in1017.9 mb 0.05 in1.3 mm 0.00 in/hr0.0 mm/hr 0.13 in3.3 mm
03:04 AM 59.2°F15.1°C 58.3°F14.6°C 97% 2.0 mph E3.2 kmh E 6.0 mph9.7 kmh 30.06 in1017.9 mb 0.05 in1.3 mm 0.02 in/hr0.5 mm/hr 0.13 in3.3 mm
02:54 AM 59.2°F15.1°C 58.3°F14.6°C 97% 2.0 mph ENE3.2 kmh ENE 8.1 mph13.0 kmh 30.06 in1017.9 mb 0.03 in0.8 mm 0.00 in/hr0.0 mm/hr 0.11 in2.8 mm
02:44 AM 59.2°F15.1°C 58.3°F14.6°C 97% 2.9 mph E4.7 kmh E 8.1 mph13.0 kmh 30.06 in1017.9 mb 0.03 in0.8 mm 0.00 in/hr0.0 mm/hr 0.11 in2.8 mm
02:34 AM 59.2°F15.1°C 58.3°F14.6°C 97% 2.0 mph NE3.2 kmh NE 8.9 mph14.3 kmh 30.06 in1017.9 mb 0.03 in0.8 mm 0.06 in/hr1.5 mm/hr 0.10 in2.5 mm
02:24 AM 59.2°F15.1°C 58.3°F14.6°C 97% 2.9 mph ENE4.7 kmh ENE 9.0 mph14.5 kmh 30.06 in1017.9 mb 0.02 in0.5 mm 0.06 in/hr1.5 mm/hr 0.09 in2.3 mm
02:14 AM 59.2°F15.1°C 58.3°F14.6°C 97% 2.9 mph NE4.7 kmh NE 6.9 mph11.1 kmh 30.06 in1017.9 mb 0.01 in0.3 mm 0.00 in/hr0.0 mm/hr 0.08 in2.0 mm
02:04 AM 59.2°F15.1°C 58.3°F14.6°C 97% 2.0 mph ESE3.2 kmh ESE 10.1 mph16.3 kmh 30.06 in1017.9 mb 0.01 in0.3 mm 0.00 in/hr0.0 mm/hr 0.08 in2.0 mm
01:54 AM 59.2°F15.1°C 58.3°F14.6°C 97% 2.0 mph NNE3.2 kmh NNE 10.1 mph16.3 kmh 30.06 in1017.9 mb 0.02 in0.5 mm 0.00 in/hr0.0 mm/hr 0.08 in2.0 mm
01:44 AM 59.2°F15.1°C 58.3°F14.6°C 97% 2.0 mph ENE3.2 kmh ENE 8.1 mph13.0 kmh 30.06 in1017.9 mb 0.03 in0.8 mm 0.06 in/hr1.5 mm/hr 0.08 in2.0 mm
01:34 AM 59.2°F15.1°C 58.3°F14.6°C 97% 2.9 mph WNW4.7 kmh WNW 10.1 mph16.3 kmh 30.06 in1017.9 mb 0.02 in0.5 mm 0.00 in/hr0.0 mm/hr 0.07 in1.8 mm
01:24 AM 59.2°F15.1°C 58.3°F14.6°C 97% 2.9 mph ENE4.7 kmh ENE 10.1 mph16.3 kmh 30.06 in1017.9 mb 0.03 in0.8 mm 0.00 in/hr0.0 mm/hr 0.07 in1.8 mm
01:14 AM 59.2°F15.1°C 58.3°F14.6°C 97% 2.9 mph ENE4.7 kmh ENE 8.1 mph13.0 kmh 30.06 in1017.9 mb 0.07 in1.8 mm 0.00 in/hr0.0 mm/hr 0.07 in1.8 mm
01:04 AM 59.2°F15.1°C 58.3°F14.6°C 97% 2.9 mph NE4.7 kmh NE 8.9 mph14.3 kmh 30.05 in1017.6 mb 0.07 in1.8 mm 0.01 in/hr0.3 mm/hr 0.07 in1.8 mm
12:54 AM 59.2°F15.1°C 58.3°F14.6°C 97% 2.0 mph E3.2 kmh E 8.9 mph14.3 kmh 30.06 in1017.9 mb 0.06 in1.5 mm 0.00 in/hr0.0 mm/hr 0.06 in1.5 mm
12:44 AM 59.2°F15.1°C 58.3°F14.6°C 97% 2.0 mph ENE3.2 kmh ENE 6.9 mph11.1 kmh 30.06 in1017.9 mb 0.07 in1.8 mm 0.00 in/hr0.0 mm/hr 0.05 in1.3 mm
12:34 AM 59.4°F15.2°C 58.5°F14.7°C 97% 2.9 mph NE4.7 kmh NE 6.9 mph11.1 kmh 30.06 in1017.9 mb 0.08 in2.0 mm 0.12 in/hr3.0 mm/hr 0.05 in1.3 mm
12:24 AM 59.4°F15.2°C 58.5°F14.7°C 97% 2.9 mph ENE4.7 kmh ENE 12.1 mph19.5 kmh 30.06 in1017.9 mb 0.06 in1.5 mm 0.00 in/hr0.0 mm/hr 0.03 in0.8 mm
12:14 AM 59.4°F15.2°C 58.5°F14.7°C 97% 2.9 mph NE4.7 kmh NE 11.0 mph17.7 kmh 30.06 in1017.9 mb 0.07 in1.8 mm 0.00 in/hr0.0 mm/hr 0.11 in2.8 mm
12:04 AM 59.5°F15.3°C 58.6°F14.8°C 97% 2.9 mph ENE4.7 kmh ENE 11.0 mph17.7 kmh 30.06 in1017.9 mb 0.11 in2.8 mm 1.65 in/hr41.9 mm/hr 0.11 in2.8 mm